createdAt,value
2022-08-23T00:02:29.021Z,11.57
2022-08-23T00:07:31.209Z,11.25
2022-08-23T00:12:34.874Z,11.63
2022-08-23T00:17:36.760Z,8.43
2022-08-23T00:22:38.629Z,10.20
2022-08-23T00:27:40.088Z,8.48
2022-08-23T00:32:42.138Z,9.43
2022-08-23T00:37:44.219Z,10.50
2022-08-23T00:43:30.067Z,12.70
2022-08-23T00:48:34.290Z,12.60
2022-08-23T00:53:38.504Z,11.70
2022-08-23T00:58:40.637Z,9.45
2022-08-23T01:03:43.770Z,8.80
2022-08-23T01:08:48.587Z,9.57
2022-08-23T01:13:55.945Z,11.35
2022-08-23T01:18:57.598Z,11.00
2022-08-23T01:24:00.713Z,11.07
2022-08-23T01:29:04.740Z,10.40
2022-08-23T01:34:08.270Z,9.93
2022-08-23T01:39:09.875Z,9.98
2022-08-23T01:44:11.317Z,11.55
2022-08-23T01:49:12.887Z,10.65
2022-08-23T01:54:14.877Z,11.00
2022-08-23T01:59:16.552Z,10.00
2022-08-23T02:04:17.967Z,14.48
2022-08-23T02:09:19.639Z,13.30
2022-08-23T02:14:21.211Z,12.68
2022-08-23T02:19:22.621Z,11.98
2022-08-23T02:24:25.139Z,12.25
2022-08-23T02:29:29.548Z,10.23
2022-08-23T02:34:31.681Z,10.60
2022-08-23T02:39:33.205Z,9.27
2022-08-23T02:44:35.593Z,12.52
2022-08-23T02:49:37.023Z,11.93
2022-08-23T02:54:38.482Z,14.75
2022-08-23T02:59:39.888Z,10.65
2022-08-23T03:04:41.289Z,12.00
2022-08-23T03:09:43.126Z,10.70
2022-08-23T03:14:44.607Z,10.27
2022-08-23T03:19:48.360Z,11.95
2022-08-23T03:24:49.773Z,10.77
2022-08-23T03:29:51.200Z,10.52
2022-08-23T03:34:53.081Z,13.38
2022-08-23T03:39:54.512Z,13.30
2022-08-23T03:44:57.043Z,11.27
2022-08-23T03:50:04.170Z,11.25
2022-08-23T03:55:05.822Z,11.30
2022-08-23T04:00:08.858Z,10.60
2022-08-23T04:05:10.942Z,11.55
2022-08-23T04:10:15.158Z,10.30
2022-08-23T04:15:16.712Z,10.93
2022-08-23T04:20:18.184Z,12.85
2022-08-23T04:25:34.983Z,11.18
2022-08-23T04:30:37.086Z,11.40
2022-08-23T04:35:39.723Z,11.02
2022-08-23T04:41:00.851Z,10.65
2022-08-23T04:46:02.339Z,11.43
2022-08-23T04:51:03.864Z,11.77
2022-08-23T04:56:06.025Z,9.88
2022-08-23T05:01:12.324Z,11.32
2022-08-23T05:06:13.911Z,9.68
2022-08-23T05:11:15.986Z,10.50
2022-08-23T05:16:17.866Z,12.27
2022-08-23T05:21:20.613Z,10.98
2022-08-23T05:26:22.163Z,10.15
2022-08-23T05:31:24.785Z,12.27
2022-08-23T05:36:26.251Z,10.55
2022-08-23T05:41:33.363Z,11.50
2022-08-23T05:46:40.258Z,11.68
2022-08-23T05:51:44.893Z,13.95
2022-08-23T05:56:53.023Z,14.90
2022-08-23T06:01:54.481Z,9.93
2022-08-23T06:06:58.859Z,13.73
2022-08-23T06:12:00.315Z,15.65
2022-08-23T06:17:01.827Z,11.98
2022-08-23T06:22:03.608Z,12.48
2022-08-23T06:27:05.245Z,13.85
2022-08-23T06:32:06.743Z,11.70
2022-08-23T06:37:10.060Z,10.80
2022-08-23T06:42:37.394Z,11.35
2022-08-23T06:47:34.770Z,13.70
2022-08-23T06:52:36.723Z,10.63
2022-08-23T06:57:38.620Z,15.80
2022-08-23T07:02:40.101Z,11.57
2022-08-23T07:07:44.250Z,10.90
2022-08-23T07:12:46.103Z,11.32
2022-08-23T07:17:47.640Z,11.43
2022-08-23T07:22:49.361Z,9.60
2022-08-23T07:27:50.767Z,13.25
2022-08-23T07:32:52.180Z,13.13
2022-08-23T07:37:53.764Z,11.55
2022-08-23T07:42:58.267Z,14.32
2022-08-23T07:48:01.997Z,19.40
2022-08-23T07:53:03.718Z,12.75
2022-08-23T07:58:05.133Z,15.15
2022-08-23T08:03:06.702Z,11.38
2022-08-23T08:08:08.616Z,12.52
2022-08-23T08:13:10.490Z,12.63
2022-08-23T08:18:12.100Z,12.70
2022-08-23T08:23:13.543Z,12.02
2022-08-23T08:28:16.097Z,11.13
2022-08-23T08:33:17.794Z,10.60
2022-08-23T08:38:19.275Z,15.25
2022-08-23T08:43:27.621Z,14.90
2022-08-23T08:48:30.320Z,15.88
2022-08-23T08:53:35.608Z,11.95
2022-08-23T08:58:42.224Z,13.02
2022-08-23T09:03:43.737Z,13.38
2022-08-23T09:08:54.719Z,12.55
2022-08-23T09:14:10.989Z,10.80
2022-08-23T09:19:12.434Z,10.23
2022-08-23T09:24:16.161Z,12.43
2022-08-23T09:29:25.058Z,13.10
2022-08-23T09:34:32.252Z,10.88
2022-08-23T09:39:35.569Z,11.82
2022-08-23T09:44:39.324Z,13.35
2022-08-23T09:49:42.599Z,17.38
2022-08-23T09:54:47.590Z,27.33
2022-08-23T09:59:52.246Z,25.95
2022-08-23T10:04:59.605Z,13.68
2022-08-23T10:10:13.953Z,14.82
2022-08-23T10:15:15.920Z,13.82
2022-08-23T10:20:27.631Z,11.80
2022-08-23T10:25:42.497Z,11.80
2022-08-23T10:31:16.227Z,12.93
2022-08-23T10:36:29.012Z,12.90
2022-08-23T10:41:49.664Z,14.10
2022-08-23T10:47:09.533Z,16.13
2022-08-23T10:52:14.934Z,13.88
2022-08-23T10:57:17.847Z,13.82
2022-08-23T11:02:20.110Z,12.38
2022-08-23T11:07:26.359Z,13.60
2022-08-23T11:12:29.070Z,15.27
2022-08-23T11:17:34.852Z,12.85
2022-08-23T11:22:56.531Z,11.50
2022-08-23T11:28:30.455Z,9.77
2022-08-23T11:33:36.082Z,11.85
2022-08-23T11:38:43.553Z,13.07
2022-08-23T11:43:57.227Z,9.97
2022-08-23T11:48:58.682Z,9.75
2022-08-23T11:54:00.073Z,9.57
2022-08-23T11:59:10.486Z,10.95
2022-08-23T12:04:30.792Z,8.65
2022-08-23T12:09:34.933Z,9.13
2022-08-23T12:14:42.363Z,9.63
2022-08-23T12:19:49.174Z,9.25
2022-08-23T12:24:56.655Z,11.27
2022-08-23T12:30:16.987Z,11.70
2022-08-23T12:35:37.242Z,14.27
2022-08-23T12:40:42.573Z,11.98
2022-08-23T12:45:49.126Z,11.82
2022-08-23T12:50:56.837Z,9.68
2022-08-23T12:56:02.773Z,12.23
2022-08-23T13:01:24.417Z,11.00
2022-08-23T13:06:34.285Z,10.80
2022-08-23T13:11:36.778Z,10.80
2022-08-23T13:16:43.011Z,7.90
2022-08-23T13:21:45.026Z,8.30
2022-08-23T13:26:48.824Z,11.02
2022-08-23T13:31:50.255Z,9.70
2022-08-23T13:36:51.784Z,10.02
2022-08-23T13:41:53.990Z,9.60
2022-08-23T13:46:55.406Z,9.35
2022-08-23T13:52:18.383Z,7.15
2022-08-23T13:57:21.705Z,13.52
2022-08-23T14:02:24.082Z,14.63
2022-08-23T14:07:25.576Z,16.67
2022-08-23T14:12:31.743Z,13.93
2022-08-23T14:17:40.152Z,17.00
2022-08-23T14:22:41.589Z,16.35
2022-08-23T14:27:44.674Z,16.60
2022-08-23T14:32:46.083Z,16.50
2022-08-23T14:38:04.506Z,12.95
2022-08-23T14:43:10.732Z,11.40
2022-08-23T14:48:12.180Z,12.60
2022-08-23T14:53:16.069Z,13.70
2022-08-23T14:58:17.562Z,13.65
2022-08-23T15:03:20.651Z,13.25
2022-08-23T15:08:24.021Z,13.50
2022-08-23T15:13:31.233Z,11.70
2022-08-23T15:18:36.882Z,11.15
2022-08-23T15:23:38.381Z,9.18
2022-08-23T15:28:39.983Z,10.80
2022-08-23T15:33:41.387Z,11.48
2022-08-23T15:44:14.095Z,11.95
2022-08-23T15:49:20.155Z,9.88
2022-08-23T15:54:21.654Z,11.57
2022-08-23T15:59:23.090Z,10.43
2022-08-23T16:04:24.935Z,9.80
2022-08-23T16:09:26.835Z,8.25
2022-08-23T16:14:32.524Z,7.38
2022-08-23T16:19:34.112Z,6.45
2022-08-23T16:24:35.572Z,7.07
2022-08-23T16:29:40.067Z,8.23
2022-08-23T16:34:41.614Z,10.70
2022-08-23T16:39:44.953Z,9.65
2022-08-23T16:44:47.424Z,5.57
2022-08-23T16:49:48.856Z,8.40
2022-08-23T16:54:50.337Z,9.70
2022-08-23T16:59:51.892Z,7.38
2022-08-23T17:04:53.865Z,7.20
2022-08-23T17:09:55.303Z,7.70
2022-08-23T17:14:57.396Z,5.28
2022-08-23T17:19:58.883Z,6.95
2022-08-23T17:25:00.343Z,5.05
2022-08-23T17:30:02.093Z,7.78
2022-08-23T17:35:03.578Z,5.72
2022-08-23T17:40:07.222Z,5.22
2022-08-23T17:45:09.356Z,7.88
2022-08-23T17:50:11.797Z,7.25
2022-08-23T17:55:17.295Z,8.10
2022-08-23T18:00:20.672Z,7.85
2022-08-23T18:05:22.535Z,8.75
2022-08-23T18:10:25.052Z,8.63
2022-08-23T18:15:27.097Z,10.35
2022-08-23T18:20:29.190Z,8.50
2022-08-23T18:25:30.792Z,8.20
2022-08-23T18:30:52.851Z,10.80
2022-08-23T18:35:54.349Z,8.30
2022-08-23T18:40:55.818Z,9.98
2022-08-23T18:45:57.380Z,9.63
2022-08-23T18:50:59.403Z,11.98
2022-08-23T18:56:00.876Z,12.90
2022-08-23T19:01:06.373Z,11.75
2022-08-23T19:06:08.169Z,9.15
2022-08-23T19:11:09.601Z,10.45
2022-08-23T19:16:13.285Z,11.55
2022-08-23T19:21:18.256Z,13.35
2022-08-23T19:26:22.217Z,10.25
2022-08-23T19:31:25.144Z,12.48
2022-08-23T19:36:45.178Z,10.68
2022-08-23T19:41:48.636Z,13.00
2022-08-23T19:46:50.130Z,11.32
2022-08-23T19:51:51.664Z,11.93
2022-08-23T19:56:58.039Z,9.88
2022-08-23T20:01:59.864Z,14.00
2022-08-23T20:07:02.032Z,11.48
2022-08-23T20:12:03.771Z,10.65
2022-08-23T20:17:07.555Z,9.45
2022-08-23T20:22:27.871Z,8.90
2022-08-23T20:27:31.120Z,9.80
2022-08-23T20:32:33.205Z,12.52
2022-08-23T20:37:34.961Z,12.68
2022-08-23T20:42:37.566Z,11.50
2022-08-23T20:47:41.172Z,11.52
2022-08-23T20:52:43.040Z,9.25
2022-08-23T20:57:44.551Z,11.23
2022-08-23T21:02:45.996Z,12.70
2022-08-23T21:07:47.489Z,9.57
2022-08-23T21:12:49.197Z,10.13
2022-08-23T21:17:50.845Z,10.73
2022-08-23T21:22:52.290Z,8.55
2022-08-23T21:27:53.701Z,9.60
2022-08-23T21:32:55.109Z,10.25
2022-08-23T21:37:56.554Z,15.35
2022-08-23T21:42:58.050Z,11.30
2022-08-23T21:47:59.477Z,10.90
2022-08-23T21:53:04.227Z,9.27
2022-08-23T21:58:05.986Z,11.32
2022-08-23T22:03:07.874Z,9.13
2022-08-23T22:08:09.774Z,10.57
2022-08-23T22:13:15.859Z,13.98
2022-08-23T22:18:17.327Z,10.98
2022-08-23T22:23:18.736Z,12.80
2022-08-23T22:28:20.447Z,12.30
2022-08-23T22:33:21.845Z,13.63
2022-08-23T22:38:23.268Z,14.05
2022-08-23T22:43:24.953Z,14.10
2022-08-23T22:48:27.137Z,14.77
2022-08-23T22:53:28.530Z,13.07
2022-08-23T22:58:29.949Z,15.20
2022-08-23T23:03:31.732Z,13.02
2022-08-23T23:08:33.184Z,13.05
2022-08-23T23:13:34.678Z,12.65
2022-08-23T23:18:36.307Z,18.38
2022-08-23T23:23:37.900Z,14.27
2022-08-23T23:28:39.321Z,13.93
2022-08-23T23:33:40.762Z,13.45
2022-08-23T23:38:42.366Z,13.65
2022-08-23T23:43:44.477Z,12.13
2022-08-23T23:48:47.009Z,13.05
2022-08-23T23:53:48.864Z,11.77
2022-08-23T23:58:54.406Z,12.00
